Time;durP1;ratioP1;P1;durP2;ratioP2;P2;SDS_P1;SDS_P2;PMS_P1;PMS_P2;Temp;Humidity;BMP_temperature;BMP_pressure;BME280_temperature;BME280_humidity;BME280_pressure;Samples;Min_cycle;Max_cycle;Signal;HPM_P1;HPM_P2
2022/05/27 04:29:49;;;;;;;;;;;;;;;;;;;;;
2022/05/27 06:19:16;;;;;;;;;;;13.90;99.90;;;;;;4771174;30;19933;-85
2022/05/27 06:21:44;;;;;;;;;;;13.90;99.90;;;;;;4773928;30;19946;-85
2022/05/27 06:24:13;;;;;;;;;;;14.50;99.90;;;;;;4789292;29;20155;-84
2022/05/27 06:26:39;;;;;;;;;;;14.00;99.90;;;;;;4772995;29;19999;-84
2022/05/27 06:34:34;;;;;;;;;;;14.30;99.90;;;;;;4773390;30;20375;-84
2022/05/27 06:37:02;;;;;;;;;;;14.30;99.90;;;;;;4774332;30;19925;-85
2022/05/27 06:39:28;;;;;;;;;;;14.40;99.90;;;;;;4789655;29;19996;-85
2022/05/27 06:41:57;;;;;;;;;;;14.50;99.90;;;;;;4772838;30;19976;-85
2022/05/27 06:44:23;;;;;;;;;;;14.70;99.90;;;;;;4788721;29;19965;-84
2022/05/27 06:46:51;;;;;;;;;;;14.70;99.90;;;;;;4772930;30;20033;-84
2022/05/27 06:49:17;;;;;;;;;;;14.70;99.90;;;;;;4773425;30;19932;-84
2022/05/27 06:51:44;;;;;;;;;;;14.80;99.90;;;;;;4774386;30;19932;-83
2022/05/27 06:54:09;;;;;;;;;;;15.30;99.90;;;;;;4795867;29;19925;-87
2022/05/27 06:56:39;;;;;;;;;;;15.00;99.90;;;;;;4792220;29;19974;-88
2022/05/27 06:59:05;;;;;;;;;;;15.40;99.90;;;;;;4775122;30;20341;-87
2022/05/27 07:01:31;;;;;;;;;;;14.60;99.90;;;;;;4785916;30;19925;-87
2022/05/27 07:03:57;;;;;;;;;;;15.10;99.90;;;;;;4788625;30;19928;-87
2022/05/27 07:16:33;;;;;;;;;;;15.40;99.90;;;;;;4808582;29;19989;-86
2022/05/27 07:18:59;;;;;;;;;;;15.30;99.90;;;;;;4791900;29;20007;-86
2022/05/27 07:21:25;;;;;;;;;;;15.90;99.90;;;;;;4798510;29;19931;-87
2022/05/27 07:27:13;;;;;;;;;;;15.60;99.90;;;;;;4807659;29;19965;-86
2022/05/27 07:29:41;;;;;;;;;;;15.90;99.90;;;;;;4807136;29;19929;-86
2022/05/27 07:32:10;;;;;;;;;;;16.00;99.90;;;;;;4791540;29;19968;-87
2022/05/27 07:34:41;;;;;;;;;;;16.20;99.90;;;;;;4791219;29;19925;-87
2022/05/27 07:37:09;;;;;;;;;;;16.00;99.90;;;;;;4807311;29;19932;-87
2022/05/27 07:39:38;;;;;;;;;;;16.00;99.90;;;;;;4807103;29;19980;-86
2022/05/27 07:42:04;;;;;;;;;;;15.80;99.90;;;;;;4791025;29;19925;-85
2022/05/27 07:44:30;;;;;;;;;;;15.60;99.90;;;;;;4791764;29;19925;-87
2022/05/27 07:46:55;;;;;;;;;;;15.80;99.90;;;;;;4790891;29;19925;-85
2022/05/27 07:49:37;;;;;;;;;;;15.80;99.90;;;;;;4792333;29;20300;-87
2022/05/27 07:52:15;;;;;;;;;;;16.00;99.90;;;;;;4790456;29;19925;-86
2022/05/27 07:54:41;;;;;;;;;;;16.30;99.90;;;;;;4790509;29;19929;-86
2022/05/27 07:59:57;;;;;;;;;;;16.90;99.90;;;;;;4790802;29;19925;-87
2022/05/27 08:02:24;;;;;;;;;;;16.60;99.90;;;;;;4806787;29;19961;-89
2022/05/27 08:04:50;;;;;;;;;;;16.30;99.90;;;;;;4791351;29;19925;-86
2022/05/27 08:07:20;;;;;;;;;;;16.20;99.90;;;;;;4790156;29;20023;-87
2022/05/27 08:09:46;;;;;;;;;;;16.20;99.90;;;;;;4790553;29;19929;-87
2022/05/27 08:12:12;;;;;;;;;;;16.30;99.90;;;;;;4790277;29;20084;-86
2022/05/27 08:14:40;;;;;;;;;;;16.50;99.90;;;;;;4807053;29;19932;-86
2022/05/27 08:17:06;;;;;;;;;;;16.40;99.90;;;;;;4790294;29;19925;-86
2022/05/27 08:19:31;;;;;;;;;;;16.40;99.90;;;;;;4806904;29;19932;-86
2022/05/27 08:21:57;;;;;;;;;;;16.40;99.90;;;;;;4806325;29;19925;-86
2022/05/27 08:24:23;;;;;;;;;;;16.50;99.90;;;;;;4806042;29;20004;-85
2022/05/27 08:26:48;;;;;;;;;;;16.60;99.90;;;;;;4806460;29;19932;-86
2022/05/27 08:29:17;;;;;;;;;;;16.30;99.90;;;;;;4790389;29;19931;-87
2022/05/27 08:31:48;;;;;;;;;;;16.30;99.90;;;;;;4790202;29;20298;-87
2022/05/27 08:39:53;;;;;;;;;;;15.90;99.90;;;;;;4809628;29;19925;-87
2022/05/27 08:42:37;;;;;;;;;;;16.40;99.90;;;;;;4790200;29;19921;-87
2022/05/27 08:45:15;;;;;;;;;;;16.50;99.90;;;;;;4789852;29;19925;-85
2022/05/27 08:47:44;;;;;;;;;;;16.60;99.90;;;;;;4805807;24;20307;-88
2022/05/27 08:50:22;;;;;;;;;;;16.60;99.90;;;;;;4788839;29;19926;-87
2022/05/27 08:52:56;;;;;;;;;;;16.60;99.90;;;;;;4772134;30;19926;-87
2022/05/27 09:01:14;;;;;;;;;;;17.50;99.90;;;;;;4771852;30;20388;-88
2022/05/27 09:03:43;;;;;;;;;;;16.80;99.90;;;;;;4788144;29;20296;-86
2022/05/27 09:06:10;;;;;;;;;;;16.90;99.90;;;;;;4772171;29;20337;-86
2022/05/27 09:08:36;;;;;;;;;;;17.20;99.60;;;;;;4787997;29;19982;-86
2022/05/27 09:11:22;;;;;;;;;;;17.20;99.90;;;;;;4772002;30;19933;-86
2022/05/27 09:13:52;;;;;;;;;;;17.10;99.90;;;;;;4772017;30;19925;-86
2022/05/27 09:16:24;;;;;;;;;;;17.10;99.90;;;;;;4771840;30;20024;-87
2022/05/27 09:19:12;;;;;;;;;;;17.00;99.90;;;;;;4771815;29;19932;-87
2022/05/27 09:21:56;;;;;;;;;;;16.90;99.90;;;;;;4771724;30;19928;-86
2022/05/27 09:24:30;;;;;;;;;;;17.30;99.90;;;;;;4788059;29;19972;-86
2022/05/27 09:27:11;;;;;;;;;;;18.00;99.90;;;;;;4787755;29;19981;-87
2022/05/27 09:29:58;;;;;;;;;;;17.40;99.90;;;;;;4771967;30;20283;-87
2022/05/27 09:32:30;;;;;;;;;;;17.10;99.90;;;;;;4771742;30;19969;-87
2022/05/27 09:35:04;;;;;;;;;;;17.10;99.90;;;;;;4772143;30;19933;-87
2022/05/27 09:37:36;;;;;;;;;;;17.40;99.00;;;;;;4771627;30;19932;-87
2022/05/27 09:40:06;;;;;;;;;;;17.10;99.90;;;;;;4771872;29;19976;-86
2022/05/27 09:42:40;;;;;;;;;;;17.30;99.90;;;;;;4772467;30;20404;-86
2022/05/27 09:45:06;;;;;;;;;;;17.40;99.90;;;;;;4787694;29;20277;-85
2022/05/27 09:47:33;;;;;;;;;;;17.50;99.90;;;;;;4787340;29;19937;-86
2022/05/27 09:50:00;;;;;;;;;;;17.60;99.90;;;;;;4787629;29;19925;-86
2022/05/27 09:52:27;;;;;;;;;;;17.70;99.80;;;;;;4787519;29;20307;-87
2022/05/27 09:54:55;;;;;;;;;;;17.50;99.90;;;;;;4787551;29;19983;-87
2022/05/27 09:57:23;;;;;;;;;;;17.40;99.90;;;;;;4771952;30;19925;-87
2022/05/27 09:59:53;;;;;;;;;;;17.20;99.90;;;;;;4786729;29;19935;-87
2022/05/27 10:02:34;;;;;;;;;;;17.50;99.90;;;;;;4790979;29;19926;-87
2022/05/27 10:05:03;;;;;;;;;;;17.90;98.00;;;;;;4774869;29;20367;-87
2022/05/27 10:07:29;;;;;;;;;;;17.60;98.40;;;;;;4774650;30;19929;-86
2022/05/27 10:09:55;;;;;;;;;;;17.30;99.60;;;;;;4790744;29;20509;-87
2022/05/27 10:12:32;;;;;;;;;;;17.00;99.30;;;;;;4790818;29;20425;-87
2022/05/27 10:14:58;;;;;;;;;;;17.00;99.80;;;;;;4774900;30;20429;-86
2022/05/27 10:17:36;;;;;;;;;;;17.10;99.90;;;;;;4774792;30;19989;-87
2022/05/27 10:20:23;;;;;;;;;;;17.20;99.90;;;;;;4774787;30;19932;-88
2022/05/27 10:23:03;;;;;;;;;;;17.30;99.90;;;;;;4791045;29;20257;-92
2022/05/27 10:25:31;;;;;;;;;;;17.20;99.90;;;;;;4774434;30;19926;-87
2022/05/27 10:27:57;;;;;;;;;;;17.30;99.90;;;;;;4774466;30;20362;-93
2022/05/27 10:30:25;;;;;;;;;;;17.20;99.90;;;;;;4774767;29;19926;-92
2022/05/27 10:32:51;;;;;;;;;;;17.80;99.00;;;;;;4774566;30;19932;-88
2022/05/27 10:35:25;;;;;;;;;;;17.50;99.90;;;;;;4777635;30;19925;-91
2022/05/27 10:38:07;;;;;;;;;;;17.40;99.90;;;;;;4789112;29;19997;-92
2022/05/27 10:40:39;;;;;;;;;;;17.40;99.60;;;;;;4798459;30;19960;-90
2022/05/27 10:43:17;;;;;;;;;;;17.30;99.80;;;;;;4794065;29;19936;-86
2022/05/27 10:45:44;;;;;;;;;;;17.30;99.00;;;;;;4800952;29;19925;-91
2022/05/27 10:48:38;;;;;;;;;;;17.20;99.60;;;;;;4802671;29;19933;-87
2022/05/27 10:51:03;;;;;;;;;;;17.10;99.90;;;;;;4783518;29;19929;-91
2022/05/27 10:53:32;;;;;;;;;;;17.10;99.90;;;;;;4790962;29;19932;-89
2022/05/27 10:56:05;;;;;;;;;;;17.40;99.90;;;;;;4774030;30;19972;-87
2022/05/27 11:04:24;;;;;;;;;;;17.80;99.50;;;;;;4792812;29;20398;-88
2022/05/27 11:06:50;;;;;;;;;;;18.10;99.00;;;;;;4791721;29;20016;-88
2022/05/27 11:09:33;;;;;;;;;;;18.20;97.30;;;;;;4791633;29;20066;-87
2022/05/27 11:12:01;;;;;;;;;;;17.90;98.10;;;;;;4807408;29;20375;-88
2022/05/27 11:17:42;;;;;;;;;;;17.30;97.80;;;;;;4806995;29;19925;-88
2022/05/27 11:20:08;;;;;;;;;;;17.60;98.00;;;;;;4807743;29;20303;-88
2022/05/27 11:22:42;;;;;;;;;;;17.40;98.20;;;;;;4787756;29;19933;-90
2022/05/27 11:25:29;;;;;;;;;;;17.40;99.20;;;;;;4789821;29;19925;-88
2022/05/27 11:28:09;;;;;;;;;;;16.90;99.90;;;;;;4789611;29;19926;-87
2022/05/27 11:30:35;;;;;;;;;;;16.90;99.60;;;;;;4788626;29;19987;-87
2022/05/27 11:33:03;;;;;;;;;;;17.00;99.20;;;;;;4788233;29;20363;-86
2022/05/27 11:35:29;;;;;;;;;;;17.10;98.90;;;;;;4788149;29;20407;-86
2022/05/27 11:38:12;;;;;;;;;;;17.00;98.60;;;;;;4818843;24;19929;-86
2022/05/27 11:40:56;;;;;;;;;;;16.90;99.10;;;;;;4772810;30;20402;-87
2022/05/27 11:43:53;;;;;;;;;;;16.70;99.80;;;;;;4773532;30;19925;-87
2022/05/27 11:46:31;;;;;;;;;;;16.70;99.90;;;;;;4716656;30;19927;-87
2022/05/27 11:49:20;;;;;;;;;;;16.60;99.90;;;;;;4702265;30;19927;-86
2022/05/27 11:51:48;;;;;;;;;;;16.70;99.90;;;;;;4716415;30;19997;-86
2022/05/27 11:54:23;;;;;;;;;;;16.70;99.90;;;;;;4687075;30;19936;-87
2022/05/27 11:57:08;;;;;;;;;;;16.40;99.90;;;;;;4701869;30;20486;-88
2022/05/27 11:59:36;;;;;;;;;;;16.30;99.90;;;;;;4701805;30;19933;-86
2022/05/27 12:02:16;;;;;;;;;;;16.50;99.90;;;;;;4702054;30;20384;-87
2022/05/27 12:04:50;;;;;;;;;;;15.70;99.90;;;;;;4701882;30;20026;-86
2022/05/27 12:07:37;;;;;;;;;;;16.60;99.90;;;;;;4697143;30;19978;-90
2022/05/27 12:10:20;;;;;;;;;;;16.50;99.90;;;;;;4714076;30;19931;-85
2022/05/27 12:12:49;;;;;;;;;;;16.50;99.90;;;;;;4700160;30;19927;-85
2022/05/27 12:15:44;;;;;;;;;;;16.40;99.90;;;;;;4701242;30;20045;-86
2022/05/27 12:18:23;;;;;;;;;;;16.50;99.90;;;;;;4701476;30;19934;-85
2022/05/27 12:20:49;;;;;;;;;;;16.70;99.90;;;;;;4715371;30;19983;-85
2022/05/27 12:23:16;;;;;;;;;;;16.30;99.90;;;;;;4730816;29;19921;-85
2022/05/27 12:25:44;;;;;;;;;;;17.00;99.90;;;;;;4757291;30;19971;-86
2022/05/27 12:28:10;;;;;;;;;;;16.80;99.90;;;;;;4788594;29;20283;-85
2022/05/27 12:30:51;;;;;;;;;;;16.80;99.90;;;;;;4771118;30;19932;-88
2022/05/27 12:33:38;;;;;;;;;;;;;;;;;;;;;
2022/05/27 12:36:18;;;;;;;;;;;16.80;99.90;;;;;;4779849;30;20325;-86
2022/05/27 12:38:57;;;;;;;;;;;17.20;99.90;;;;;;4763979;30;19933;-86
2022/05/27 12:41:37;;;;;;;;;;;17.30;99.90;;;;;;4778459;30;20311;-85
2022/05/27 12:44:09;;;;;;;;;;;17.30;99.90;;;;;;4771113;30;20434;-85
2022/05/27 12:47:09;;;;;;;;;;;17.40;99.90;;;;;;4786415;30;19975;-85
2022/05/27 12:49:38;;;;;;;;;;;17.30;99.90;;;;;;4786924;29;19925;-86
2022/05/27 12:52:22;;;;;;;;;;;17.50;99.30;;;;;;4764509;30;20332;-85
2022/05/27 12:54:59;;;;;;;;;;;17.20;99.90;;;;;;4780625;30;19926;-86
2022/05/27 13:03:33;;;;;;;;;;;17.10;99.90;;;;;;4786736;29;20013;-85
2022/05/27 13:06:19;;;;;;;;;;;17.20;99.90;;;;;;4785981;30;20353;-86
2022/05/27 13:09:06;;;;;;;;;;;17.30;99.90;;;;;;4767520;30;20029;-86
2022/05/27 13:11:31;;;;;;;;;;;17.50;99.90;;;;;;4751257;30;19990;-86
2022/05/27 13:14:03;;;;;;;;;;;18.10;99.90;;;;;;4786276;29;20433;-85
2022/05/27 13:16:49;;;;;;;;;;;18.30;99.40;;;;;;4801429;24;19962;-87
2022/05/27 13:19:31;;;;;;;;;;;18.20;97.90;;;;;;4773854;30;19926;-86
2022/05/27 13:21:59;;;;;;;;;;;17.80;98.20;;;;;;4767834;30;19926;-85
2022/05/27 13:24:32;;;;;;;;;;;17.50;99.30;;;;;;4760360;30;19925;-85
2022/05/27 13:26:59;;;;;;;;;;;17.70;99.90;;;;;;4757062;30;19925;-84
2022/05/27 13:29:28;;;;;;;;;;;17.90;99.90;;;;;;4750671;30;19926;-85
2022/05/27 13:32:05;;;;;;;;;;;17.90;99.90;;;;;;4755267;30;19922;-85
2022/05/27 13:34:50;;;;;;;;;;;18.20;98.30;;;;;;4753680;30;20296;-85
2022/05/27 13:37:34;;;;;;;;;;;18.30;96.10;;;;;;4760555;30;20350;-85
2022/05/27 13:40:03;;;;;;;;;;;17.80;97.10;;;;;;4773492;29;20449;-85
2022/05/27 13:42:49;;;;;;;;;;;17.60;97.70;;;;;;4759289;30;20020;-86
2022/05/27 13:45:35;;;;;;;;;;;18.20;98.70;;;;;;4757205;30;19987;-86
2022/05/27 13:48:17;;;;;;;;;;;17.20;99.10;;;;;;4759120;30;20009;-91
2022/05/27 13:50:46;;;;;;;;;;;17.20;98.20;;;;;;4764835;30;20363;-83
2022/05/27 13:59:58;;;;;;;;;;;17.00;99.90;;;;;;4773045;30;19970;-87
2022/05/27 14:02:29;;;;;;;;;;;17.50;98.30;;;;;;4772482;29;20002;-87
2022/05/27 14:04:55;;;;;;;;;;;17.50;99.80;;;;;;4757398;30;19926;-87
2022/05/27 14:07:27;;;;;;;;;;;17.60;99.80;;;;;;4757172;30;20395;-89
2022/05/27 14:09:58;;;;;;;;;;;17.80;99.90;;;;;;4757101;30;20407;-86
2022/05/27 14:12:29;;;;;;;;;;;17.70;98.60;;;;;;4742780;30;20020;-86
2022/05/27 14:14:55;;;;;;;;;;;17.50;98.90;;;;;;4756918;30;19926;-86
2022/05/27 14:17:22;;;;;;;;;;;17.60;98.70;;;;;;4767462;30;20017;-87
2022/05/27 14:20:02;;;;;;;;;;;17.70;98.50;;;;;;4775999;30;19933;-86
2022/05/27 14:22:40;;;;;;;;;;;17.40;99.00;;;;;;4758834;30;19930;-88
2022/05/27 14:25:26;;;;;;;;;;;17.40;99.80;;;;;;4765206;30;19926;-87
2022/05/27 14:27:54;;;;;;;;;;;17.50;99.20;;;;;;4723273;30;19933;-86
2022/05/27 14:30:24;;;;;;;;;;;17.30;99.40;;;;;;4713765;30;19974;-89
2022/05/27 14:32:50;;;;;;;;;;;17.30;99.70;;;;;;4704475;30;20309;-89
2022/05/27 14:35:22;;;;;;;;;;;17.10;99.90;;;;;;4703701;30;19930;-88
2022/05/27 14:37:50;;;;;;;;;;;16.90;99.90;;;;;;4703175;30;19973;-89
2022/05/27 14:40:19;;;;;;;;;;;16.70;99.90;;;;;;4702979;30;19934;-88
2022/05/27 14:42:46;;;;;;;;;;;16.80;99.90;;;;;;4703058;30;19984;-89
2022/05/27 14:45:33;;;;;;;;;;;16.70;99.90;;;;;;4717341;30;19937;-88
2022/05/27 14:47:59;;;;;;;;;;;16.50;99.90;;;;;;4716648;30;19945;-87
2022/05/27 14:50:32;;;;;;;;;;;16.50;99.90;;;;;;4703141;30;19931;-87
2022/05/27 14:53:04;;;;;;;;;;;16.20;99.90;;;;;;4703221;30;19926;-89
2022/05/27 14:55:35;;;;;;;;;;;17.10;99.90;;;;;;4717223;30;19937;-88
2022/05/27 14:58:03;;;;;;;;;;;17.80;99.80;;;;;;4702548;30;19965;-87
2022/05/27 15:00:46;;;;;;;;;;;18.00;98.40;;;;;;4702620;30;19927;-88
2022/05/27 15:03:23;;;;;;;;;;;18.20;97.10;;;;;;4702685;30;19933;-87
2022/05/27 15:05:49;;;;;;;;;;;18.00;97.20;;;;;;4764582;30;19926;-89
2022/05/27 15:08:23;;;;;;;;;;;18.10;96.90;;;;;;4755976;30;19926;-88
2022/05/27 15:11:08;;;;;;;;;;;18.40;95.80;;;;;;4755936;30;19926;-88
2022/05/27 15:13:44;;;;;;;;;;;18.40;95.20;;;;;;4756094;30;19930;-87
2022/05/27 15:16:10;;;;;;;;;;;17.90;96.20;;;;;;4755843;30;19975;-88
2022/05/27 15:19:01;;;;;;;;;;;17.70;96.50;;;;;;4759046;30;19930;-88
2022/05/27 15:21:34;;;;;;;;;;;17.50;98.10;;;;;;4730837;30;19992;-89
2022/05/27 15:24:05;;;;;;;;;;;17.60;98.70;;;;;;4734563;30;19937;-90
2022/05/27 15:35:36;;;;;;;;;;;17.70;97.80;;;;;;4737651;30;19968;-86
2022/05/27 15:38:05;;;;;;;;;;;17.70;97.40;;;;;;4730283;30;20013;-87
2022/05/27 15:40:31;;;;;;;;;;;18.00;98.20;;;;;;4736106;30;20382;-88
2022/05/27 15:42:57;;;;;;;;;;;18.20;98.10;;;;;;4732977;30;19926;-88
2022/05/27 15:45:23;;;;;;;;;;;18.20;96.70;;;;;;4726215;30;20038;-86
2022/05/27 15:47:48;;;;;;;;;;;18.10;96.80;;;;;;4731242;30;19934;-88
2022/05/27 15:50:37;;;;;;;;;;;;;;;;;;;;;
2022/05/27 16:00:27;;;;;;;;;;;17.30;97.30;;;;;;4737192;30;20022;-86
2022/05/27 16:02:55;;;;;;;;;;;17.10;98.60;;;;;;4753038;30;19926;-87
2022/05/27 16:05:27;;;;;;;;;;;17.00;99.20;;;;;;4737777;30;20012;-89
2022/05/27 16:07:55;;;;;;;;;;;17.00;99.10;;;;;;4753321;30;19925;-85
2022/05/27 16:13:43;;;;;;;;;;;16.60;99.70;;;;;;4746633;30;20268;-87
2022/05/27 16:19:15;;;;;;;;;;;16.60;99.60;;;;;;4750015;30;20057;-87
2022/05/27 16:21:44;;;;;;;;;;;16.20;99.90;;;;;;4792951;24;20372;-88
2022/05/27 16:24:11;;;;;;;;;;;16.30;99.90;;;;;;4765824;24;19926;-90
2022/05/27 16:27:34;;;;;;;;;;;16.10;99.90;;;;;;4773013;30;19969;-89
2022/05/27 16:31:08;;;;;;;;;;;15.60;99.90;;;;;;4718081;24;19936;-89
2022/05/27 16:34:04;;;;;;;;;;;16.00;99.90;;;;;;4722901;30;19968;-88
2022/05/27 16:36:30;;;;;;;;;;;15.60;99.90;;;;;;4723824;30;20161;-89
2022/05/27 16:45:57;;;;;;;;;;;15.60;99.90;;;;;;4866316;24;19929;-88
2022/05/27 16:51:30;;;;;;;;;;;15.80;99.90;;;;;;4932111;24;19926;-88
2022/05/27 17:00:29;;;;;;;;;;;16.00;99.90;;;;;;4751995;29;20034;-89
2022/05/27 17:03:28;;;;;;;;;;;16.10;99.90;;;;;;4785256;24;19936;-91
2022/05/27 17:05:59;;;;;;;;;;;16.00;99.90;;;;;;4766354;24;19932;-88
2022/05/27 17:08:27;;;;;;;;;;;15.70;99.90;;;;;;4770337;30;19933;-86
2022/05/27 17:14:17;;;;;;;;;;;15.80;99.90;;;;;;4779768;29;19924;-94
2022/05/27 17:16:43;;;;;;;;;;;16.00;99.90;;;;;;4772313;30;20017;-90
2022/05/27 17:19:09;;;;;;;;;;;15.60;99.90;;;;;;4788151;29;19969;-91
2022/05/27 17:21:35;;;;;;;;;;;15.70;99.90;;;;;;4778679;30;19933;-90
2022/05/27 17:24:01;;;;;;;;;;;15.40;99.90;;;;;;4780374;29;19952;-90
2022/05/27 17:26:32;;;;;;;;;;;15.50;99.90;;;;;;4783738;30;19926;-90
2022/05/27 17:29:32;;;;;;;;;;;;;;;;;;;;;
2022/05/27 17:32:07;;;;;;;;;;;15.50;99.90;;;;;;5113081;24;20290;-90
2022/05/27 17:37:21;;;;;;;;;;;15.30;99.90;;;;;;4045131;27;19929;-90
2022/05/27 17:43:21;;;;;;;;;;;15.10;99.90;;;;;;4833751;24;19986;-91
2022/05/27 17:45:54;;;;;;;;;;;15.20;99.90;;;;;;4724343;30;19987;-91
2022/05/27 17:51:23;;;;;;;;;;;15.40;99.90;;;;;;4822515;24;19926;-90
2022/05/27 17:57:23;;;;;;;;;;;15.10;99.90;;;;;;4899058;24;19929;-89
2022/05/27 18:03:34;;;;;;;;;;;15.40;99.90;;;;;;4758749;30;19933;-85
2022/05/27 18:06:10;;;;;;;;;;;15.10;99.90;;;;;;4740044;30;19934;-87
2022/05/27 18:08:38;;;;;;;;;;;14.80;99.90;;;;;;4752692;30;19983;-88
2022/05/27 18:16:47;;;;;;;;;;;14.70;99.90;;;;;;5312654;24;19934;-87
2022/05/27 18:19:44;;;;;;;;;;;14.60;99.90;;;;;;5267740;24;19924;-83
2022/05/27 18:22:10;;;;;;;;;;;14.60;99.90;;;;;;4768459;30;20418;-88
2022/05/27 18:24:36;;;;;;;;;;;14.70;99.90;;;;;;4773592;30;20345;-88
2022/05/27 18:27:02;;;;;;;;;;;14.60;99.90;;;;;;4757578;30;19937;-90
2022/05/27 18:29:28;;;;;;;;;;;14.50;99.90;;;;;;4757632;30;20388;-88
2022/05/27 18:31:54;;;;;;;;;;;14.50;99.90;;;;;;4773449;30;19921;-89
2022/05/27 18:34:19;;;;;;;;;;;14.60;99.90;;;;;;4757047;30;20345;-89
2022/05/27 18:36:45;;;;;;;;;;;14.40;99.90;;;;;;4765901;30;19928;-87
2022/05/27 18:39:11;;;;;;;;;;;14.40;99.90;;;;;;4746351;30;19972;-87
2022/05/27 18:41:36;;;;;;;;;;;14.20;99.90;;;;;;4753114;30;19926;-87
2022/05/27 18:44:02;;;;;;;;;;;14.20;99.90;;;;;;4745910;30;19922;-88
2022/05/27 18:46:28;;;;;;;;;;;14.20;99.90;;;;;;4746252;30;20268;-88
2022/05/27 18:48:54;;;;;;;;;;;13.60;99.90;;;;;;4747375;30;19952;-90
2022/05/27 18:51:19;;;;;;;;;;;14.10;99.90;;;;;;4767942;30;20375;-91
2022/05/27 18:53:47;;;;;;;;;;;14.20;99.90;;;;;;4747541;30;20320;-88
2022/05/27 18:56:13;;;;;;;;;;;14.00;99.90;;;;;;4748440;30;19926;-88
2022/05/27 18:58:38;;;;;;;;;;;13.70;99.90;;;;;;4744362;30;19937;-89
2022/05/27 19:01:04;;;;;;;;;;;13.80;99.90;;;;;;4748769;30;19949;-87
2022/05/27 19:03:30;;;;;;;;;;;13.80;99.90;;;;;;4746958;30;19960;-85
2022/05/27 19:09:18;;;;;;;;;;;13.80;99.90;;;;;;4757376;30;19983;-86
2022/05/27 19:11:44;;;;;;;;;;;13.50;99.90;;;;;;4738749;30;19926;-85
2022/05/27 19:14:10;;;;;;;;;;;13.60;99.90;;;;;;4764348;30;19932;-85
2022/05/27 19:16:35;;;;;;;;;;;13.60;99.90;;;;;;4764563;30;20338;-85
2022/05/27 19:21:45;;;;;;;;;;;13.40;99.90;;;;;;4768018;30;20414;-90
2022/05/27 19:24:11;;;;;;;;;;;13.10;99.90;;;;;;4752383;30;19933;-88
2022/05/27 19:26:37;;;;;;;;;;;13.40;99.90;;;;;;4767758;30;19926;-89
2022/05/27 19:29:03;;;;;;;;;;;13.60;99.90;;;;;;4752806;30;19933;-88
2022/05/27 19:31:29;;;;;;;;;;;13.40;99.90;;;;;;4767182;30;20269;-88
2022/05/27 19:33:55;;;;;;;;;;;13.40;99.90;;;;;;4765018;30;19926;-89
2022/05/27 19:36:22;;;;;;;;;;;13.40;99.90;;;;;;4754452;30;19934;-86
2022/05/27 19:38:47;;;;;;;;;;;13.30;99.90;;;;;;4745591;30;19926;-87
2022/05/27 19:41:13;;;;;;;;;;;13.30;99.90;;;;;;4744993;30;19926;-89
2022/05/27 19:43:40;;;;;;;;;;;13.20;99.90;;;;;;4767171;30;19926;-87
2022/05/27 19:46:06;;;;;;;;;;;13.20;99.90;;;;;;4752215;30;19926;-87
2022/05/27 19:48:32;;;;;;;;;;;13.20;99.90;;;;;;4744253;30;19933;-87
2022/05/27 19:50:58;;;;;;;;;;;13.50;99.90;;;;;;4744800;30;19926;-89
2022/05/27 19:53:23;;;;;;;;;;;13.20;99.90;;;;;;4752115;30;19980;-90
2022/05/27 19:55:49;;;;;;;;;;;13.10;99.90;;;;;;4741250;30;19926;-92
2022/05/27 20:00:59;;;;;;;;;;;13.10;99.90;;;;;;4768794;30;20342;-86
2022/05/27 20:06:09;;;;;;;;;;;13.10;99.90;;;;;;4762536;30;19926;-86
2022/05/27 20:08:38;;;;;;;;;;;13.10;99.90;;;;;;4752282;30;19926;-89
2022/05/27 20:11:09;;;;;;;;;;;13.10;99.90;;;;;;4762079;30;19929;-86
2022/05/27 20:13:36;;;;;;;;;;;13.00;99.90;;;;;;4765075;30;19930;-86
2022/05/27 20:16:02;;;;;;;;;;;12.80;99.90;;;;;;4765651;30;19980;-88
2022/05/27 20:18:27;;;;;;;;;;;13.00;99.90;;;;;;4771622;30;19926;-91
2022/05/27 20:24:51;;;;;;;;;;;12.80;99.90;;;;;;4762078;30;19932;-90
2022/05/27 20:27:17;;;;;;;;;;;12.80;99.90;;;;;;4746652;30;20299;-89
2022/05/27 20:29:43;;;;;;;;;;;12.90;99.90;;;;;;4749780;30;19926;-86
2022/05/27 20:32:09;;;;;;;;;;;12.70;99.90;;;;;;4766505;30;19933;-85
2022/05/27 20:34:36;;;;;;;;;;;12.80;99.90;;;;;;4747966;30;20340;-85
2022/05/27 20:37:02;;;;;;;;;;;12.70;99.90;;;;;;4743740;30;19983;-87
2022/05/27 20:39:29;;;;;;;;;;;12.70;99.90;;;;;;4762839;30;19926;-87
2022/05/27 20:41:55;;;;;;;;;;;12.90;99.90;;;;;;4747292;30;20367;-89
2022/05/27 20:44:21;;;;;;;;;;;13.10;99.90;;;;;;4745384;30;19925;-87
2022/05/27 20:46:47;;;;;;;;;;;12.70;99.90;;;;;;4743812;30;20008;-89
2022/05/27 20:49:15;;;;;;;;;;;12.30;99.90;;;;;;4743771;30;19926;-87
2022/05/27 20:51:43;;;;;;;;;;;12.80;99.90;;;;;;4743645;30;19969;-88
2022/05/27 20:54:09;;;;;;;;;;;12.80;99.90;;;;;;4765309;30;19926;-87
2022/05/27 20:56:36;;;;;;;;;;;12.70;99.90;;;;;;4752719;30;19937;-89
2022/05/27 20:59:02;;;;;;;;;;;12.70;99.90;;;;;;4762919;30;20368;-89
2022/05/27 21:01:28;;;;;;;;;;;12.80;99.90;;;;;;4746093;30;20017;-87
2022/05/27 21:03:56;;;;;;;;;;;12.80;99.90;;;;;;4746323;30;20016;-86
2022/05/27 21:06:22;;;;;;;;;;;12.70;99.90;;;;;;4760787;30;19934;-86
2022/05/27 21:08:51;;;;;;;;;;;12.70;99.90;;;;;;4744048;30;19945;-86
2022/05/27 21:11:27;;;;;;;;;;;12.70;99.90;;;;;;4743504;30;19977;-86
2022/05/27 21:13:54;;;;;;;;;;;12.70;99.90;;;;;;4743414;30;20406;-86
2022/05/27 21:16:20;;;;;;;;;;;12.70;99.90;;;;;;4749212;30;20005;-87
2022/05/27 21:18:46;;;;;;;;;;;12.80;99.90;;;;;;4760379;30;20439;-87
2022/05/27 21:21:15;;;;;;;;;;;12.60;99.90;;;;;;4746338;30;19925;-87
2022/05/27 21:23:41;;;;;;;;;;;12.90;99.90;;;;;;4768239;30;20020;-87
2022/05/27 21:26:07;;;;;;;;;;;12.70;99.90;;;;;;4766992;30;20013;-87
2022/05/27 21:28:33;;;;;;;;;;;12.60;99.90;;;;;;4744868;30;19970;-86
2022/05/27 21:30:59;;;;;;;;;;;12.50;99.90;;;;;;4745634;30;19997;-86
2022/05/27 21:33:25;;;;;;;;;;;12.40;99.90;;;;;;4741259;30;20016;-86
2022/05/27 21:35:51;;;;;;;;;;;12.40;99.90;;;;;;4744155;30;20403;-86
2022/05/27 21:38:16;;;;;;;;;;;12.60;99.90;;;;;;4744140;30;19929;-85
2022/05/27 21:40:42;;;;;;;;;;;12.50;99.90;;;;;;4759274;30;20337;-86
2022/05/27 21:43:08;;;;;;;;;;;12.50;99.90;;;;;;4759941;30;20304;-87
2022/05/27 21:45:34;;;;;;;;;;;12.40;99.90;;;;;;4743514;30;19972;-86
2022/05/27 21:48:00;;;;;;;;;;;12.10;99.90;;;;;;4737431;30;19926;-87
2022/05/27 21:50:26;;;;;;;;;;;12.50;99.90;;;;;;4741920;30;19930;-86
2022/05/27 21:52:52;;;;;;;;;;;12.50;99.90;;;;;;4745314;30;19930;-86
2022/05/27 21:55:18;;;;;;;;;;;12.40;99.90;;;;;;4743134;30;20382;-86
2022/05/27 21:57:43;;;;;;;;;;;12.40;99.90;;;;;;4749376;30;19983;-86
2022/05/27 22:00:10;;;;;;;;;;;12.50;99.90;;;;;;4765095;30;19977;-86
2022/05/27 22:02:36;;;;;;;;;;;12.40;99.90;;;;;;4746268;30;19948;-87
2022/05/27 22:05:04;;;;;;;;;;;12.40;99.90;;;;;;4766453;30;20484;-87
2022/05/27 22:07:30;;;;;;;;;;;12.40;99.90;;;;;;4746622;30;19926;-87
2022/05/27 22:12:43;;;;;;;;;;;12.30;99.90;;;;;;4744216;30;19932;-87
2022/05/27 22:15:09;;;;;;;;;;;12.30;99.90;;;;;;4748045;30;19926;-88
2022/05/27 22:17:35;;;;;;;;;;;12.30;99.90;;;;;;4761851;30;19926;-88
2022/05/27 22:20:02;;;;;;;;;;;12.10;99.90;;;;;;4762906;30;20039;-87
2022/05/27 22:22:27;;;;;;;;;;;12.40;99.90;;;;;;4762696;30;19926;-87
2022/05/27 22:24:53;;;;;;;;;;;12.30;99.90;;;;;;4745688;30;19930;-89
2022/05/27 22:27:20;;;;;;;;;;;12.40;99.90;;;;;;4762053;30;20406;-88
2022/05/27 22:29:47;;;;;;;;;;;12.40;99.90;;;;;;4746246;30;20264;-89
2022/05/27 22:32:20;;;;;;;;;;;12.20;99.90;;;;;;4767344;30;19921;-87
2022/05/27 22:34:46;;;;;;;;;;;12.50;99.90;;;;;;4748652;30;19925;-87
2022/05/27 22:37:12;;;;;;;;;;;12.60;99.90;;;;;;4748394;30;19978;-87
2022/05/27 22:39:40;;;;;;;;;;;12.50;99.90;;;;;;4745422;30;20388;-88
2022/05/27 22:42:11;;;;;;;;;;;12.60;99.90;;;;;;4746943;30;19933;-88
2022/05/27 22:44:36;;;;;;;;;;;12.70;99.90;;;;;;4746018;30;20288;-88
2022/05/27 22:47:05;;;;;;;;;;;12.60;99.90;;;;;;4761552;30;19959;-89
2022/05/27 22:49:33;;;;;;;;;;;12.60;99.90;;;;;;4747198;30;20394;-88
2022/05/27 22:52:01;;;;;;;;;;;12.60;99.90;;;;;;4759866;30;19933;-89
2022/05/27 22:54:27;;;;;;;;;;;13.00;99.90;;;;;;4746458;30;19948;-88
2022/05/27 22:56:55;;;;;;;;;;;12.50;99.90;;;;;;4764045;30;19926;-88
2022/05/27 22:59:26;;;;;;;;;;;12.60;99.90;;;;;;4748582;30;19933;-88
2022/05/27 23:01:52;;;;;;;;;;;13.40;99.90;;;;;;4767774;30;19933;-89
2022/05/27 23:04:18;;;;;;;;;;;12.60;99.90;;;;;;4746302;30;19926;-88
2022/05/27 23:06:45;;;;;;;;;;;12.60;99.90;;;;;;4747776;30;20270;-89
2022/05/27 23:09:10;;;;;;;;;;;12.70;99.90;;;;;;4747401;30;19926;-88
2022/05/27 23:11:39;;;;;;;;;;;12.00;99.90;;;;;;4741145;30;19932;-89
2022/05/27 23:19:33;;;;;;;;;;;12.10;99.90;;;;;;4747917;30;19932;-88
2022/05/27 23:21:59;;;;;;;;;;;12.00;99.90;;;;;;4748379;30;19926;-88